Station Historical Data
Daily Summary for December 6, 2017 Units:  English    Metric   Both
« Previous Day
Next Day »
Daily Weekly Monthly Yearly Custom
  High: Low: Average:
Temperature: 37.0 °F 32.0 °F 34.3 °F
Dew Point: 31.2 °F 19.7 °F 25.6 °F
Humidity: 88% 58% 71%
Wind Speed: 20.0mph 2.0mph 10.3mph
Wind Gust: 34.0mph - -
Wind- - WSW
Pressure: 29.92 in 29.84 in -
Precipitation: 0.01 in    
Historical Graphs
 
 
Tabular Data for December 6, 2017
Time Temperature Dew Point Pressure Wind Wind Speed Wind Gust Humidity Rainfall Rate (Hourly)
00:00 35.6 °F 22.3 °F 29.85 in WNW 11.0 mph 15.0 mph 58% 0.00 in
00:05 35.3 °F 22.4 °F 29.85 in WNW 9.0 mph 16.0 mph 59% 0.00 in
00:10 35.1 °F 21.8 °F 29.85 in WNW 9.0 mph 16.0 mph 58% 0.00 in
00:15 35.0 °F 22.1 °F 29.85 in WNW 10.0 mph 17.0 mph 59% 0.00 in
00:20 34.8 °F 21.9 °F 29.85 in West 9.0 mph 18.0 mph 59% 0.00 in
00:25 34.6 °F 21.7 °F 29.85 in WNW 9.0 mph 18.0 mph 59% 0.00 in
00:30 34.5 °F 21.6 °F 29.85 in West 9.0 mph 13.0 mph 59% 0.00 in
00:35 34.4 °F 21.5 °F 29.85 in West 9.0 mph 16.0 mph 59% 0.00 in
00:40 34.3 °F 21.8 °F 29.85 in WNW 7.0 mph 15.0 mph 60% 0.00 in
00:45 34.3 °F 21.8 °F 29.85 in West 8.0 mph 16.0 mph 60% 0.00 in
00:50 34.2 °F 21.7 °F 29.85 in WSW 4.0 mph 16.0 mph 60% 0.00 in
00:55 34.1 °F 21.7 °F 29.85 in West 15.0 mph 17.0 mph 60% 0.00 in
01:00 34.0 °F 22.0 °F 29.85 in WSW 3.0 mph 18.0 mph 61% 0.00 in
01:05 33.9 °F 22.2 °F 29.85 in West 11.0 mph 15.0 mph 62% 0.00 in
01:10 33.8 °F 21.8 °F 29.85 in WNW 6.0 mph 18.0 mph 61% 0.00 in
01:15 33.8 °F 22.1 °F 29.85 in West 8.0 mph 18.0 mph 62% 0.00 in
01:20 33.8 °F 22.9 °F 29.85 in West 6.0 mph 13.0 mph 64% 0.00 in
01:25 33.9 °F 23.4 °F 29.86 in WSW 6.0 mph 18.0 mph 65% 0.00 in
01:30 34.5 °F 25.7 °F 29.85 in WSW 10.0 mph 24.0 mph 70% 0.00 in
01:35 34.9 °F 26.1 °F 29.85 in WSW 13.0 mph 27.0 mph 70% 0.00 in
01:40 35.0 °F 25.1 °F 29.85 in WSW 12.0 mph 27.0 mph 67% 0.00 in
01:45 35.2 °F 24.6 °F 29.86 in WSW 11.0 mph 21.0 mph 65% 0.00 in
01:50 35.5 °F 24.5 °F 29.86 in WSW 11.0 mph 22.0 mph 64% 0.00 in
01:55 35.6 °F 23.9 °F 29.86 in West 13.0 mph 28.0 mph 62% 0.00 in
02:00 35.8 °F 24.0 °F 29.86 in West 14.0 mph 28.0 mph 62% 0.00 in
02:05 35.7 °F 24.3 °F 29.86 in West 11.0 mph 22.0 mph 63% 0.00 in
02:10 35.6 °F 24.2 °F 29.86 in West 11.0 mph 21.0 mph 63% 0.00 in
02:15 35.5 °F 24.1 °F 29.86 in West 6.0 mph 22.0 mph 63% 0.00 in
02:20 35.7 °F 24.3 °F 29.87 in WSW 5.0 mph 25.0 mph 63% 0.00 in
02:25 35.7 °F 23.9 °F 29.87 in West 9.0 mph 26.0 mph 62% 0.00 in
02:30 35.7 °F 25.1 °F 29.87 in WSW 12.0 mph 26.0 mph 65% 0.00 in
02:35 35.4 °F 26.9 °F 29.87 in WSW 12.0 mph 28.0 mph 71% 0.00 in
02:40 34.9 °F 27.5 °F 29.87 in SW 13.0 mph 28.0 mph 74% 0.00 in
02:45 34.3 °F 27.8 °F 29.88 in SW 13.0 mph 27.0 mph 77% 0.00 in
02:50 33.7 °F 27.9 °F 29.88 in SW 14.0 mph 27.0 mph 79% 0.00 in
02:55 33.2 °F 28.0 °F 29.88 in SW 18.0 mph 24.0 mph 81% 0.00 in
03:00 32.6 °F 28.0 °F 29.88 in WSW 12.0 mph 32.0 mph 83% 0.00 in
03:05 32.3 °F 28.0 °F 29.88 in WSW 13.0 mph 32.0 mph 84% 0.00 in
03:10 32.1 °F 28.1 °F 29.88 in WSW 12.0 mph 27.0 mph 85% 0.00 in
03:15 32.1 °F 28.4 °F 29.87 in SW 10.0 mph 14.0 mph 86% 0.00 in
03:20 32.2 °F 28.5 °F 29.87 in WNW 6.0 mph 17.0 mph 86% 0.00 in
03:25 32.3 °F 28.3 °F 29.87 in West 7.0 mph 22.0 mph 85% 0.00 in
03:30 32.7 °F 27.5 °F 29.87 in WSW 11.0 mph 25.0 mph 81% 0.00 in
03:35 33.3 °F 26.9 °F 29.87 in WSW 13.0 mph 25.0 mph 77% 0.00 in
03:45 33.9 °F 26.5 °F 29.86 in WSW 12.0 mph 34.0 mph 74% 0.00 in
03:50 34.1 °F 26.3 °F 29.86 in WSW 13.0 mph 34.0 mph 73% 0.00 in
03:55 34.3 °F 26.2 °F 29.86 in WSW 13.0 mph 26.0 mph 72% 0.00 in
04:00 34.4 °F 26.3 °F 29.86 in West 13.0 mph 22.0 mph 72% 0.00 in
04:05 34.6 °F 25.8 °F 29.86 in WSW 15.0 mph 27.0 mph 70% 0.00 in
04:10 34.7 °F 25.2 °F 29.86 in WSW 14.0 mph 27.0 mph 68% 0.00 in
04:20 34.8 °F 24.6 °F 29.86 in West 13.0 mph 28.0 mph 66% 0.00 in
04:25 34.8 °F 24.2 °F 29.87 in WSW 10.0 mph 22.0 mph 65% 0.00 in
04:30 34.8 °F 24.2 °F 29.86 in West 19.0 mph 22.0 mph 65% 0.00 in
04:35 34.9 °F 24.7 °F 29.86 in West 13.0 mph 28.0 mph 66% 0.00 in
04:40 34.9 °F 24.7 °F 29.87 in West 14.0 mph 24.0 mph 66% 0.00 in
04:45 35.0 °F 24.8 °F 29.86 in WSW 14.0 mph 28.0 mph 66% 0.00 in
04:50 35.0 °F 24.0 °F 29.86 in WSW 14.0 mph 32.0 mph 64% 0.00 in
04:55 34.9 °F 24.3 °F 29.87 in SW 13.0 mph 22.0 mph 65% 0.00 in
05:00 34.8 °F 23.5 °F 29.86 in WSW 16.0 mph 31.0 mph 63% 0.00 in
05:05 34.8 °F 23.5 °F 29.86 in West 20.0 mph 27.0 mph 63% 0.00 in
05:10 34.9 °F 23.9 °F 29.87 in WSW 17.0 mph 20.0 mph 64% 0.00 in
05:15 34.9 °F 23.9 °F 29.87 in West 13.0 mph 25.0 mph 64% 0.00 in
05:20 34.8 °F 23.5 °F 29.86 in WSW 12.0 mph 25.0 mph 63% 0.00 in
05:25 35.0 °F 23.3 °F 29.87 in WSW 13.0 mph 27.0 mph 62% 0.00 in
05:30 35.0 °F 23.3 °F 29.87 in WSW 13.0 mph 27.0 mph 62% 0.00 in
05:35 35.0 °F 23.3 °F 29.87 in WSW 11.0 mph 25.0 mph 62% 0.00 in
05:40 35.1 °F 23.4 °F 29.87 in WSW 12.0 mph 25.0 mph 62% 0.00 in
05:45 35.1 °F 23.4 °F 29.87 in SW 8.0 mph 23.0 mph 62% 0.00 in
05:50 35.1 °F 23.4 °F 29.87 in WSW 11.0 mph 23.0 mph 62% 0.00 in
05:55 35.2 °F 23.5 °F 29.87 in West 19.0 mph 24.0 mph 62% 0.00 in
06:00 35.1 °F 24.5 °F 29.87 in West 7.0 mph 19.0 mph 65% 0.00 in
06:05 34.9 °F 24.7 °F 29.87 in SW 12.0 mph 16.0 mph 66% 0.00 in
06:10 34.7 °F 24.9 °F 29.88 in WSW 10.0 mph 23.0 mph 67% 0.00 in
06:15 34.6 °F 24.4 °F 29.88 in West 18.0 mph 25.0 mph 66% 0.00 in
06:20 34.4 °F 24.2 °F 29.88 in WSW 7.0 mph 27.0 mph 66% 0.00 in
06:25 34.2 °F 24.0 °F 29.88 in SW 13.0 mph 27.0 mph 66% 0.00 in
06:30 34.0 °F 23.5 °F 29.88 in SW 13.0 mph 27.0 mph 65% 0.00 in
06:35 33.7 °F 23.2 °F 29.88 in SW 13.0 mph 27.0 mph 65% 0.00 in
06:40 33.6 °F 23.4 °F 29.88 in SW 12.0 mph 28.0 mph 66% 0.00 in
06:45 33.5 °F 23.4 °F 29.88 in SW 11.0 mph 28.0 mph 66% 0.00 in
06:50 33.4 °F 22.9 °F 29.88 in WSW 10.0 mph 24.0 mph 65% 0.00 in
06:55 33.3 °F 22.8 °F 29.88 in SSE 7.0 mph 26.0 mph 65% 0.00 in
07:00 33.3 °F 23.2 °F 29.89 in SW 12.0 mph 26.0 mph 66% 0.00 in
07:05 33.3 °F 23.2 °F 29.89 in SW 11.0 mph 23.0 mph 66% 0.00 in
07:10 33.1 °F 22.6 °F 29.89 in WSW 9.0 mph 23.0 mph 65% 0.00 in
07:15 33.1 °F 22.6 °F 29.88 in SW 13.0 mph 19.0 mph 65% 0.00 in
07:20 33.0 °F 22.5 °F 29.89 in SSW 19.0 mph 20.0 mph 65% 0.00 in
07:25 32.9 °F 22.4 °F 29.88 in SSW 7.0 mph 21.0 mph 65% 0.00 in
07:30 32.8 °F 22.3 °F 29.89 in SSW 7.0 mph 19.0 mph 65% 0.00 in
07:35 32.7 °F 21.9 °F 29.89 in SW 10.0 mph 22.0 mph 64% 0.00 in
07:40 32.6 °F 21.8 °F 29.89 in SW 11.0 mph 22.0 mph 64% 0.00 in
07:45 32.6 °F 22.1 °F 29.89 in SW 11.0 mph 24.0 mph 65% 0.00 in
07:50 32.6 °F 22.1 °F 29.89 in SW 10.0 mph 24.0 mph 65% 0.00 in
07:55 32.5 °F 21.7 °F 29.89 in WSW 7.0 mph 18.0 mph 64% 0.00 in
08:00 32.4 °F 21.6 °F 29.89 in SE 8.0 mph 18.0 mph 64% 0.00 in
08:05 32.4 °F 21.6 °F 29.89 in WSW 14.0 mph 18.0 mph 64% 0.00 in
08:10 32.4 °F 21.2 °F 29.89 in SSW 11.0 mph 26.0 mph 63% 0.00 in
08:15 32.2 °F 20.6 °F 29.89 in WSW 6.0 mph 24.0 mph 62% 0.00 in
08:20 32.2 °F 20.6 °F 29.89 in SSW 7.0 mph 19.0 mph 62% 0.00 in
08:25 32.1 °F 20.2 °F 29.89 in SSW 13.0 mph 24.0 mph 61% 0.00 in
08:30 32.1 °F 20.2 °F 29.89 in West 10.0 mph 26.0 mph 61% 0.00 in
08:35 32.2 °F 19.9 °F 29.89 in SSE 19.0 mph 22.0 mph 60% 0.00 in
08:40 32.1 °F 19.8 °F 29.89 in SW 6.0 mph 19.0 mph 60% 0.00 in
08:45 32.1 °F 20.2 °F 29.89 in SW 8.0 mph 19.0 mph 61% 0.00 in
08:50 32.0 °F 19.7 °F 29.89 in SW 9.0 mph 21.0 mph 60% 0.00 in
08:55 32.1 °F 20.2 °F 29.89 in SW 11.0 mph 21.0 mph 61% 0.00 in
09:00 32.3 °F 20.3 °F 29.89 in SW 10.0 mph 22.0 mph 61% 0.00 in
09:05 32.3 °F 20.0 °F 29.89 in SW 11.0 mph 23.0 mph 60% 0.00 in
09:10 32.4 °F 20.4 °F 29.89 in SW 10.0 mph 23.0 mph 61% 0.00 in
09:15 32.4 °F 20.0 °F 29.89 in SW 14.0 mph 20.0 mph 60% 0.00 in
09:20 32.5 °F 20.5 °F 29.89 in SSW 7.0 mph 18.0 mph 61% 0.00 in
09:25 32.5 °F 20.5 °F 29.89 in SW 7.0 mph 20.0 mph 61% 0.00 in
09:30 32.8 °F 21.2 °F 29.89 in SW 5.0 mph 20.0 mph 62% 0.00 in
09:35 33.0 °F 21.8 °F 29.88 in SSW 7.0 mph 27.0 mph 63% 0.00 in
09:40 33.2 °F 22.0 °F 29.88 in SW 18.0 mph 22.0 mph 63% 0.00 in
09:45 33.3 °F 22.4 °F 29.87 in SSW 15.0 mph 28.0 mph 64% 0.00 in
09:50 33.4 °F 22.5 °F 29.88 in SW 12.0 mph 28.0 mph 64% 0.00 in
09:55 33.4 °F 22.5 °F 29.88 in SW 12.0 mph 21.0 mph 64% 0.00 in
10:00 33.4 °F 22.1 °F 29.88 in SW 12.0 mph 26.0 mph 63% 0.00 in
10:05 33.5 °F 22.6 °F 29.88 in SW 11.0 mph 26.0 mph 64% 0.00 in
10:10 33.5 °F 22.2 °F 29.88 in SW 11.0 mph 23.0 mph 63% 0.00 in
10:15 33.5 °F 22.2 °F 29.88 in South 13.0 mph 20.0 mph 63% 0.00 in
10:20 33.6 °F 22.3 °F 29.88 in SW 14.0 mph 23.0 mph 63% 0.00 in
10:25 33.8 °F 22.9 °F 29.88 in SW 11.0 mph 23.0 mph 64% 0.00 in
10:30 33.8 °F 22.9 °F 29.88 in SW 11.0 mph 25.0 mph 64% 0.00 in
10:35 33.9 °F 23.0 °F 29.88 in SW 11.0 mph 25.0 mph 64% 0.00 in
10:40 34.1 °F 23.6 °F 29.88 in SW 12.0 mph 25.0 mph 65% 0.00 in
10:45 34.2 °F 24.0 °F 29.88 in SW 18.0 mph 25.0 mph 66% 0.00 in
10:50 34.2 °F 23.7 °F 29.88 in SSW 5.0 mph 32.0 mph 65% 0.00 in
10:55 34.3 °F 24.1 °F 29.88 in West 5.0 mph 29.0 mph 66% 0.00 in
11:00 34.5 °F 24.3 °F 29.88 in SW 13.0 mph 29.0 mph 66% 0.00 in
11:05 34.5 °F 24.3 °F 29.88 in SW 12.0 mph 24.0 mph 66% 0.00 in
11:10 34.6 °F 24.8 °F 29.87 in SW 13.0 mph 25.0 mph 67% 0.00 in
11:15 34.7 °F 25.2 °F 29.87 in West 16.0 mph 25.0 mph 68% 0.00 in
11:20 34.8 °F 25.3 °F 29.86 in SW 12.0 mph 25.0 mph 68% 0.00 in
11:25 35.0 °F 25.5 °F 29.86 in West 18.0 mph 25.0 mph 68% 0.00 in
11:30 35.2 °F 26.0 °F 29.86 in SW 6.0 mph 25.0 mph 69% 0.00 in
11:35 35.2 °F 26.4 °F 29.86 in SW 12.0 mph 31.0 mph 70% 0.00 in
11:40 34.9 °F 26.4 °F 29.85 in SW 12.0 mph 31.0 mph 71% 0.00 in
11:45 34.8 °F 26.4 °F 29.85 in SW 13.0 mph 24.0 mph 71% 0.00 in
11:50 35.2 °F 26.7 °F 29.85 in SSW 20.0 mph 29.0 mph 71% 0.00 in
11:55 35.4 °F 26.9 °F 29.85 in SW 8.0 mph 31.0 mph 71% 0.00 in
12:00 35.2 °F 27.1 °F 29.85 in West 13.0 mph 29.0 mph 72% 0.00 in
12:05 35.2 °F 27.7 °F 29.85 in SSW 12.0 mph 24.0 mph 74% 0.00 in
12:10 35.2 °F 27.7 °F 29.84 in SW 14.0 mph 27.0 mph 74% 0.00 in
12:15 35.2 °F 28.1 °F 29.84 in WSW 19.0 mph 23.0 mph 75% 0.00 in
12:20 35.6 °F 28.5 °F 29.84 in SW 12.0 mph 22.0 mph 75% 0.00 in
12:25 36.2 °F 27.4 °F 29.84 in SSW 8.0 mph 24.0 mph 70% 0.00 in
12:30 36.8 °F 26.9 °F 29.84 in West 7.0 mph 21.0 mph 67% 0.00 in
12:35 37.0 °F 27.1 °F 29.84 in SW 11.0 mph 23.0 mph 67% 0.00 in
12:40 36.7 °F 28.2 °F 29.84 in WSW 13.0 mph 20.0 mph 71% 0.00 in
12:45 35.9 °F 28.4 °F 29.84 in WSW 11.0 mph 20.0 mph 74% 0.00 in
12:50 35.2 °F 28.7 °F 29.85 in WSW 11.0 mph 20.0 mph 77% 0.00 in
12:55 34.6 °F 28.8 °F 29.85 in WSW 11.0 mph 26.0 mph 79% 0.00 in
13:00 34.1 °F 28.9 °F 29.85 in West 11.0 mph 22.0 mph 81% 0.00 in
13:05 33.6 °F 29.0 °F 29.84 in WSW 14.0 mph 21.0 mph 83% 0.00 in
13:10 33.3 °F 29.0 °F 29.84 in WSW 11.0 mph 22.0 mph 84% 0.00 in
13:15 33.2 °F 29.2 °F 29.84 in WSW 14.0 mph 25.0 mph 85% 0.00 in
13:20 33.1 °F 29.4 °F 29.84 in WSW 13.0 mph 25.0 mph 86% 0.00 in
13:25 33.0 °F 29.3 °F 29.84 in SW 12.0 mph 22.0 mph 86% 0.00 in
13:30 32.8 °F 29.4 °F 29.84 in SW 11.0 mph 20.0 mph 87% 0.00 in
13:35 32.9 °F 29.5 °F 29.85 in WNW 6.0 mph 23.0 mph 87% 0.00 in
13:40 32.9 °F 29.7 °F 29.85 in SW 15.0 mph 18.0 mph 88% 0.00 in
13:45 32.9 °F 29.7 °F 29.85 in WSW 9.0 mph 18.0 mph 88% 0.00 in
13:50 32.9 °F 29.7 °F 29.85 in WSW 9.0 mph 18.0 mph 88% 0.00 in
13:55 33.0 °F 29.8 °F 29.85 in WSW 8.0 mph 17.0 mph 88% 0.00 in
14:00 33.0 °F 29.8 °F 29.85 in WSW 8.0 mph 17.0 mph 88% 0.00 in
14:05 33.1 °F 29.9 °F 29.85 in WSW 15.0 mph 30.0 mph 88% 0.00 in
14:10 33.1 °F 29.9 °F 29.85 in SSE 10.0 mph 25.0 mph 88% 0.00 in
14:15 33.2 °F 30.0 °F 29.84 in WSW 15.0 mph 22.0 mph 88% 0.00 in
14:20 33.3 °F 29.8 °F 29.85 in SW 11.0 mph 28.0 mph 87% 0.00 in
14:25 33.4 °F 29.9 °F 29.85 in SW 13.0 mph 28.0 mph 87% 0.00 in
14:30 33.4 °F 29.9 °F 29.85 in SW 14.0 mph 24.0 mph 87% 0.00 in
14:35 33.2 °F 29.8 °F 29.84 in SW 12.0 mph 23.0 mph 87% 0.00 in
14:40 33.2 °F 29.8 °F 29.84 in SW 10.0 mph 20.0 mph 87% 0.00 in
14:45 33.2 °F 29.8 °F 29.84 in SW 7.0 mph 18.0 mph 87% 0.00 in
14:50 33.4 °F 29.9 °F 29.84 in West 10.0 mph 20.0 mph 87% 0.00 in
14:55 33.8 °F 30.1 °F 29.84 in South 6.0 mph 22.0 mph 86% 0.00 in
15:00 34.1 °F 30.1 °F 29.84 in SW 12.0 mph 23.0 mph 85% 0.00 in
15:05 34.4 °F 30.1 °F 29.84 in SSW 14.0 mph 22.0 mph 84% 0.00 in
15:10 34.5 °F 29.6 °F 29.85 in WSW 12.0 mph 30.0 mph 82% 0.00 in
15:15 34.4 °F 29.5 °F 29.85 in SW 10.0 mph 27.0 mph 82% 0.00 in
15:20 34.4 °F 29.5 °F 29.85 in West 14.0 mph 19.0 mph 82% 0.00 in
15:25 34.2 °F 29.6 °F 29.85 in WSW 13.0 mph 26.0 mph 83% 0.00 in
15:30 33.9 °F 29.3 °F 29.85 in SW 5.0 mph 23.0 mph 83% 0.00 in
15:35 33.8 °F 29.5 °F 29.85 in WSW 10.0 mph 23.0 mph 84% 0.00 in
15:40 33.8 °F 29.5 °F 29.85 in WSW 8.0 mph 15.0 mph 84% 0.00 in
15:45 34.0 °F 29.7 °F 29.85 in SW 10.0 mph 17.0 mph 84% 0.00 in
15:50 34.3 °F 30.0 °F 29.85 in WSW 10.0 mph 17.0 mph 84% 0.00 in
15:55 34.5 °F 29.9 °F 29.85 in WSW 10.0 mph 20.0 mph 83% 0.00 in
16:00 34.6 °F 30.0 °F 29.84 in WSW 8.0 mph 16.0 mph 83% 0.00 in
16:05 34.8 °F 30.2 °F 29.84 in WSW 10.0 mph 24.0 mph 83% 0.00 in
16:10 35.1 °F 29.9 °F 29.85 in SW 12.0 mph 24.0 mph 81% 0.00 in
16:15 35.2 °F 30.0 °F 29.84 in WSW 6.0 mph 20.0 mph 81% 0.00 in
16:20 35.3 °F 30.1 °F 29.84 in NW 9.0 mph 20.0 mph 81% 0.00 in
16:25 35.3 °F 30.4 °F 29.85 in SSE 10.0 mph 25.0 mph 82% 0.00 in
16:30 34.9 °F 30.0 °F 29.84 in SW 12.0 mph 20.0 mph 82% 0.00 in
16:35 34.6 °F 30.0 °F 29.84 in SW 9.0 mph 22.0 mph 83% 0.00 in
16:40 34.5 °F 30.2 °F 29.84 in SW 11.0 mph 22.0 mph 84% 0.00 in
16:45 34.6 °F 30.6 °F 29.84 in SW 12.0 mph 30.0 mph 85% 0.00 in
16:50 34.6 °F 30.6 °F 29.84 in SW 13.0 mph 30.0 mph 85% 0.00 in
16:55 34.5 °F 30.5 °F 29.84 in SW 12.0 mph 23.0 mph 85% 0.00 in
17:00 34.4 °F 30.4 °F 29.84 in SW 10.0 mph 19.0 mph 85% 0.00 in
17:05 34.4 °F 30.4 °F 29.84 in SW 9.0 mph 17.0 mph 85% 0.00 in
17:10 34.4 °F 30.4 °F 29.85 in WSW 7.0 mph 24.0 mph 85% 0.00 in
17:15 34.3 °F 30.3 °F 29.85 in SSW 8.0 mph 22.0 mph 85% 0.00 in
17:20 34.1 °F 30.4 °F 29.85 in WSW 8.0 mph 18.0 mph 86% 0.00 in
17:25 34.2 °F 30.4 °F 29.86 in West 5.0 mph 14.0 mph 86% 0.00 in
17:30 34.2 °F 30.4 °F 29.85 in WNW 15.0 mph 26.0 mph 86% 0.00 in
17:35 34.1 °F 30.4 °F 29.85 in West 4.0 mph 16.0 mph 86% 0.00 in
17:40 34.1 °F 30.4 °F 29.84 in SW 11.0 mph 12.0 mph 86% 0.00 in
17:45 34.3 °F 30.5 °F 29.85 in WSW 7.0 mph 13.0 mph 86% 0.00 in
17:50 34.6 °F 30.8 °F 29.85 in West 8.0 mph 20.0 mph 86% 0.00 in
17:55 34.7 °F 30.7 °F 29.84 in WSW 8.0 mph 20.0 mph 85% 0.00 in
18:00 34.7 °F 30.7 °F 29.85 in WSW 9.0 mph 18.0 mph 85% 0.00 in
18:05 34.8 °F 30.8 °F 29.85 in WSW 7.0 mph 18.0 mph 85% 0.00 in
18:10 34.8 °F 30.8 °F 29.85 in WSW 8.0 mph 17.0 mph 85% 0.00 in
18:15 35.0 °F 30.9 °F 29.84 in West 7.0 mph 18.0 mph 85% 0.00 in
18:20 35.3 °F 31.2 °F 29.85 in WSW 8.0 mph 18.0 mph 85% 0.00 in
18:25 35.5 °F 31.1 °F 29.85 in West 5.0 mph 9.0 mph 84% 0.00 in
18:30 35.6 °F 30.9 °F 29.86 in West 5.0 mph 11.0 mph 83% 0.00 in
18:35 35.5 °F 30.5 °F 29.85 in West 6.0 mph 18.0 mph 82% 0.00 in
18:40 35.6 °F 29.7 °F 29.85 in WSW 6.0 mph 18.0 mph 79% 0.00 in
18:45 35.7 °F 29.5 °F 29.85 in WNW 13.0 mph 17.0 mph 78% 0.00 in
18:50 35.8 °F 29.6 °F 29.86 in West 12.0 mph 14.0 mph 78% 0.00 in
18:55 35.7 °F 29.5 °F 29.86 in West 9.0 mph 16.0 mph 78% 0.00 in
19:00 35.6 °F 29.7 °F 29.86 in West 8.0 mph 16.0 mph 79% 0.00 in
19:05 35.5 °F 29.6 °F 29.87 in West 6.0 mph 15.0 mph 79% 0.00 in
19:10 35.4 °F 29.5 °F 29.86 in West 6.0 mph 12.0 mph 79% 0.00 in
19:15 35.2 °F 29.3 °F 29.87 in West 6.0 mph 11.0 mph 79% 0.00 in
19:20 35.2 °F 29.3 °F 29.87 in West 5.0 mph 12.0 mph 79% 0.00 in
19:25 35.1 °F 28.9 °F 29.87 in West 6.0 mph 13.0 mph 78% 0.00 in
19:30 35.1 °F 28.6 °F 29.87 in WNW 8.0 mph 13.0 mph 77% 0.00 in
19:35 35.1 °F 28.0 °F 29.87 in West 3.0 mph 15.0 mph 75% 0.00 in
19:40 35.0 °F 27.9 °F 29.87 in West 9.0 mph 13.0 mph 75% 0.00 in
19:45 35.0 °F 27.5 °F 29.87 in WNW 6.0 mph 12.0 mph 74% 0.00 in
19:50 35.0 °F 27.2 °F 29.87 in West 2.0 mph 11.0 mph 73% 0.00 in
19:55 35.0 °F 27.2 °F 29.87 in NW 7.0 mph 10.0 mph 73% 0.00 in
20:00 35.0 °F 27.2 °F 29.87 in West 6.0 mph 12.0 mph 73% 0.00 in
20:05 35.0 °F 26.9 °F 29.88 in West 7.0 mph 15.0 mph 72% 0.00 in
20:10 34.9 °F 27.5 °F 29.87 in West 8.0 mph 16.0 mph 74% 0.00 in
20:15 34.5 °F 27.4 °F 29.87 in West 7.0 mph 16.0 mph 75% 0.00 in
20:20 34.4 °F 27.3 °F 29.88 in WSW 7.0 mph 9.0 mph 75% 0.00 in
20:25 34.4 °F 27.0 °F 29.88 in WSW 6.0 mph 11.0 mph 74% 0.00 in
20:30 34.6 °F 27.2 °F 29.88 in West 6.0 mph 10.0 mph 74% 0.00 in
20:35 34.6 °F 26.8 °F 29.88 in WSW 8.0 mph 15.0 mph 73% 0.00 in
20:40 34.8 °F 26.7 °F 29.88 in West 4.0 mph 12.0 mph 72% 0.00 in
20:45 34.9 °F 25.8 °F 29.88 in SW 4.0 mph 16.0 mph 69% 0.00 in
20:50 35.0 °F 25.5 °F 29.88 in WSW 11.0 mph 16.0 mph 68% 0.00 in
20:55 35.0 °F 24.8 °F 29.88 in West 10.0 mph 21.0 mph 66% 0.00 in
21:00 35.0 °F 24.4 °F 29.88 in West 12.0 mph 16.0 mph 65% 0.00 in
21:05 35.0 °F 24.4 °F 29.88 in West 15.0 mph 21.0 mph 65% 0.01 in
21:10 35.0 °F 24.4 °F 29.88 in West 8.0 mph 21.0 mph 65% 0.01 in
21:15 35.0 °F 24.0 °F 29.88 in West 8.0 mph 18.0 mph 64% 0.01 in
21:20 34.9 °F 23.6 °F 29.88 in West 10.0 mph 22.0 mph 63% 0.01 in
21:25 34.9 °F 23.6 °F 29.88 in West 10.0 mph 22.0 mph 63% 0.01 in
21:30 34.8 °F 23.1 °F 29.88 in West 8.0 mph 18.0 mph 62% 0.01 in
21:35 34.8 °F 22.7 °F 29.89 in WNW 5.0 mph 18.0 mph 61% 0.01 in
21:40 34.7 °F 22.6 °F 29.89 in West 9.0 mph 18.0 mph 61% 0.01 in
21:45 34.6 °F 22.1 °F 29.89 in WNW 12.0 mph 17.0 mph 60% 0.01 in
21:50 34.7 °F 22.2 °F 29.89 in West 11.0 mph 20.0 mph 60% 0.01 in
21:55 34.6 °F 21.7 °F 29.88 in WNW 15.0 mph 17.0 mph 59% 0.01 in
22:00 34.5 °F 22.0 °F 29.89 in WSW 10.0 mph 17.0 mph 60% 0.01 in
22:05 34.5 °F 22.0 °F 29.89 in West 11.0 mph 17.0 mph 60% 0.00 in
22:10 34.6 °F 22.1 °F 29.90 in West 9.0 mph 20.0 mph 60% 0.00 in
22:20 34.8 °F 21.9 °F 29.90 in West 11.0 mph 19.0 mph 59% 0.00 in
22:25 34.8 °F 21.9 °F 29.90 in West 10.0 mph 22.0 mph 59% 0.00 in
22:30 34.8 °F 21.9 °F 29.90 in West 9.0 mph 22.0 mph 59% 0.00 in
22:35 34.7 °F 21.8 °F 29.91 in West 9.0 mph 19.0 mph 59% 0.00 in
22:40 34.7 °F 21.8 °F 29.91 in West 13.0 mph 19.0 mph 59% 0.00 in
22:45 34.6 °F 22.1 °F 29.91 in West 8.0 mph 19.0 mph 60% 0.00 in
22:50 34.6 °F 21.7 °F 29.91 in West 8.0 mph 16.0 mph 59% 0.00 in
22:55 34.6 °F 21.7 °F 29.91 in West 9.0 mph 19.0 mph 59% 0.00 in
23:00 34.5 °F 22.0 °F 29.91 in West 12.0 mph 16.0 mph 60% 0.00 in
23:05 34.5 °F 22.0 °F 29.91 in WNW 8.0 mph 18.0 mph 60% 0.00 in
23:10 34.4 °F 21.9 °F 29.91 in West 8.0 mph 18.0 mph 60% 0.00 in
23:20 34.2 °F 21.7 °F 29.91 in West 8.0 mph 19.0 mph 60% 0.00 in
23:25 34.1 °F 21.7 °F 29.91 in West 9.0 mph 21.0 mph 60% 0.00 in
23:30 33.9 °F 21.5 °F 29.91 in West 12.0 mph 17.0 mph 60% 0.00 in
23:35 33.8 °F 21.4 °F 29.92 in West 9.0 mph 17.0 mph 60% 0.00 in
23:40 33.8 °F 21.4 °F 29.92 in West 8.0 mph 16.0 mph 60% 0.00 in
23:45 33.9 °F 21.5 °F 29.92 in West 8.0 mph 16.0 mph 60% 0.00 in
23:50 33.9 °F 21.9 °F 29.91 in NW 11.0 mph 14.0 mph 61% 0.00 in
23:55 33.8 °F 21.4 °F 29.91 in West 8.0 mph 14.0 mph 60% 0.00 in
Buffalo, New York, USA
Compliments of Weather Underground - 2.5 mb